Latest Weather Observations for Tatura

IDV60801

Issued at 7:05 pm EDT Monday 20 October 2014 (issued every 30 minutes, with the page automatically refreshed every 10 minutes)

About weather observations | Map of weather stations | Latest weather observations for VIC | Other Formats
Station Details ID: 081049 Name: TATURA INST SUSTAINABLE AG Lat: -36.44 Lon: 145.27 Height: 114.0 m
Data from the previous 72 hours. | See also: Recent months at Tatura
Date/Time
EDT
Temp
°C
App
Temp
°C
Dew
Point
Rel
Hum
%
Delta-T
°C
Wind Press
QNH
hPa
Press
MSL
hPa
Rain
since 9 am
mm
Dir
 
Spd
km/h
Gust
km/h
Spd
kts
Gust
kts
20/07:00pm 20.0 15.2 4.5 36 7.5 S 19 26 10 14 - - 0.0
20/06:30pm 21.1 16.0 4.2 33 8.2 S 20 32 11 17 - - 0.0
20/06:00pm 22.0 16.5 4.1 31 8.7 SSE 22 32 12 17 - - 0.0
20/05:30pm 22.7 17.3 4.7 31 8.9 S 22 32 12 17 - - 0.0
20/05:00pm 23.1 17.6 4.1 29 9.4 S 22 32 12 17 - - 0.0
20/04:30pm 23.7 18.3 1.4 23 10.5 S 19 26 10 14 - - 0.0
20/04:00pm 23.6 18.2 1.3 23 10.5 S 19 26 10 14 - - 0.0
20/03:30pm 23.3 18.1 2.2 25 10.0 SSE 19 24 10 13 - - 0.0
20/03:00pm 23.2 18.4 4.7 30 9.2 SSW 19 28 10 15 - - 0.0
20/02:30pm 22.8 18.7 4.3 30 9.1 SSE 15 28 8 15 - - 0.0
20/02:00pm 22.5 18.1 4.5 31 8.9 S 17 24 9 13 - - 0.0
20/01:30pm 21.9 18.6 6.6 37 7.8 SSE 13 26 7 14 - - 0.0
20/01:00pm 21.3 17.5 5.6 36 7.9 SSE 15 24 8 13 - - 0.0
20/12:30pm 19.9 15.1 4.8 37 7.4 SSE 19 24 10 13 - - 0.0
20/12:00pm 19.5 14.9 6.3 42 6.6 S 20 30 11 16 - - 0.0
20/11:30am 18.4 13.8 6.3 45 6.0 SSE 20 28 11 15 - - 0.0
20/11:00am 17.4 12.6 5.7 46 5.7 S 20 32 11 17 - - 0.0
20/10:30am 16.6 11.6 6.4 51 5.0 SSE 22 30 12 16 - - 0.0
20/10:00am 15.5 10.4 6.0 53 4.6 SSE 22 32 12 17 - - 0.0
20/09:30am 14.5 9.0 6.1 57 4.0 SSE 24 33 13 18 - - 0.0
20/09:00am 13.5 7.7 6.4 62 3.4 SSE 26 39 14 21 - - 0.0
20/08:30am 12.5 6.7 6.1 65 3.0 SSE 26 37 14 20 - - 0.0
20/08:00am 11.4 5.9 5.7 68 2.7 SSE 24 35 13 19 - - 0.0
20/07:30am 10.9 5.0 5.9 71 2.3 SSE 26 35 14 19 - - 0.0
20/07:00am 10.3 5.1 5.7 73 2.1 SSE 22 33 12 18 - - 0.0
20/06:30am 10.3 4.8 6.1 75 2.0 SSE 24 39 13 21 - - 0.0
20/06:00am 10.4 5.3 6.2 75 2.0 SSE 22 32 12 17 - - 0.0
20/05:30am 10.8 5.0 6.2 73 2.2 SSE 26 39 14 21 - - 0.0
20/05:00am 11.0 6.4 6.6 74 2.1 SSE 20 32 11 17 - - 0.0
20/04:30am 11.3 6.5 7.2 76 2.0 SSE 22 35 12 19 - - 0.0
20/04:00am 11.6 6.4 7.3 75 2.1 SSE 24 37 13 20 - - 0.0
20/03:30am 12.0 6.9 7.7 75 2.1 SSE 24 37 13 20 - - 0.0
20/03:00am 12.6 8.0 8.3 75 2.1 SSE 22 37 12 20 - - 0.0
20/02:30am 13.0 8.0 8.1 72 2.4 SSE 24 33 13 18 - - 0.0
20/02:00am 13.0 8.4 8.3 73 2.3 SE 22 32 12 17 - - 0.0
20/01:30am 13.3 8.9 9.0 75 2.2 SE 22 33 12 18 - - 0.0
20/01:00am 13.3 9.3 9.0 75 2.2 SSE 20 32 11 17 - - 0.0
20/12:30am 13.8 10.4 9.0 73 2.4 SE 17 24 9 13 - - 0.0
20/12:00am 14.2 10.2 9.2 72 2.6 SE 20 28 11 15 - - 0.0
 
Date/Time
EDT
Temp
°C
App
Temp
°C
Dew
Point
Rel
Hum
%
Delta-T
°C
Wind Press
QNH
hPa
Press
MSL
hPa
Rain
since 9 am
mm
Dir
 
Spd
km/h
Gust
km/h
Spd
kts
Gust
kts
19/11:30pm 14.3 10.0 9.3 72 2.6 SE 22 33 12 18 - - 0.0
19/11:00pm 14.8 9.4 9.6 71 2.7 SE 28 46 15 25 - - 0.0
19/10:59pm 14.9 9.6 9.7 71 2.7 SE 28 46 15 25 - - 0.0
19/10:56pm 14.9 9.6 9.7 71 2.7 SE 28 46 15 25 - - 0.0
19/10:30pm 15.4 10.1 10.0 70 2.8 SSE 28 43 15 23 - - 0.0
19/10:00pm 16.3 11.8 9.9 66 3.4 SE 24 39 13 21 - - 0.0
19/09:30pm 16.3 11.8 9.9 66 3.4 SE 24 33 13 18 - - 0.0
19/09:00pm 17.0 12.1 9.9 63 3.8 SE 26 37 14 20 - - 0.0
19/08:42pm 19.3 13.6 8.3 49 5.7 SE 28 57 15 31 - - 0.0
19/08:40pm 19.3 13.6 8.3 49 5.7 SE 28 57 15 31 - - 0.0
19/08:30pm 19.3 17.3 6.4 43 6.5 N 6 9 3 5 - - 0.0
19/08:00pm 21.9 18.9 4.0 31 8.7 N 9 11 5 6 - - 0.0
19/07:30pm 23.5 20.3 2.9 26 9.9 N 9 13 5 7 - - 0.0
19/07:00pm 25.5 22.0 3.5 24 10.9 N 11 13 6 7 - - 0.0
19/06:30pm 28.1 25.2 4.4 22 12.1 NNW 9 17 5 9 - - 0.0
19/06:00pm 29.5 25.1 0.2 15 14.1 NNW 13 19 7 10 - - 0.0
19/05:30pm 29.2 24.6 -1.0 14 14.2 NNW 13 17 7 9 - - 0.0
19/05:00pm 30.3 24.5 -1.2 13 14.8 WNW 19 22 10 12 - - 0.0
19/04:30pm 29.8 24.9 -0.5 14 14.4 NNW 15 22 8 12 - - 0.0
19/04:00pm 29.1 24.8 0.7 16 13.7 NNW 13 19 7 10 - - 0.0
19/03:30pm 29.1 25.3 3.9 20 12.9 N 13 26 7 14 - - 0.0
19/03:00pm 28.1 24.0 2.3 19 12.7 N 13 19 7 10 - - 0.0
19/02:30pm 28.7 23.9 2.8 19 12.9 N 17 24 9 13 - - 0.0
19/02:00pm 28.6 25.0 4.8 22 12.3 N 13 24 7 13 - - 0.0
19/01:30pm 27.8 23.7 6.0 25 11.4 NNE 17 22 9 12 - - 0.0
19/01:00pm 26.3 22.9 5.8 27 10.6 NNE 13 19 7 10 - - 0.0
19/12:30pm 24.5 20.8 6.3 31 9.4 NE 15 17 8 9 - - 0.0
19/12:00pm 23.9 20.4 5.3 30 9.4 NNE 13 19 7 10 - - 0.0
19/11:30am 23.9 20.4 7.1 34 8.8 NNE 15 22 8 12 - - 0.0
19/11:00am 22.7 18.8 6.9 36 8.2 NNE 17 20 9 11 - - 0.0
19/10:30am 20.9 17.4 7.2 41 7.0 NE 15 20 8 11 - - 0.0
19/10:00am 19.1 16.1 7.5 47 5.9 NNE 13 20 7 11 - - 0.0
19/09:30am 19.3 15.5 7.7 47 6.0 NE 17 28 9 15 - - 0.0
19/09:00am 17.8 13.3 6.3 47 5.7 NE 19 24 10 13 - - 0.0
19/08:30am 16.4 12.1 6.8 53 4.8 NE 19 26 10 14 - - 0.0
19/08:00am 14.9 10.9 6.7 58 4.0 NE 17 24 9 13 - - 0.0
19/07:30am 13.7 10.5 6.8 63 3.4 ENE 13 17 7 9 - - 0.0
19/07:00am 12.9 8.9 6.7 66 3.0 ENE 17 20 9 11 - - 0.0
19/06:30am 12.5 9.3 6.8 68 2.7 ENE 13 17 7 9 - - 0.0
19/06:00am 12.0 9.5 6.7 70 2.5 E 9 11 5 6 - - 0.0
19/05:30am 11.2 8.7 6.5 73 2.2 ENE 9 13 5 7 - - 0.0
19/05:00am 11.4 8.8 6.1 70 2.5 E 9 11 5 6 - - 0.0
19/04:30am 12.3 9.4 6.6 68 2.7 ENE 11 15 6 8 - - 0.0
19/04:00am 12.2 9.7 6.5 68 2.7 ENE 9 11 5 6 - - 0.0
19/03:30am 12.8 9.9 6.6 66 3.0 ENE 11 13 6 7 - - 0.0
19/03:00am 13.3 10.4 6.4 63 3.3 ENE 11 13 6 7 - - 0.0
19/02:30am 14.1 10.8 6.5 60 3.7 ENE 13 17 7 9 - - 0.0
19/02:00am 14.4 10.7 6.5 59 3.8 ENE 15 20 8 11 - - 0.0
19/01:30am 14.0 10.7 6.6 61 3.6 ENE 13 17 7 9 - - 0.0
19/01:00am 14.2 10.8 6.1 58 3.9 ENE 13 17 7 9 - - 0.0
19/12:30am 14.1 10.7 5.7 57 4.0 E 13 17 7 9 - - 0.0
19/12:00am 14.0 11.3 5.6 57 4.0 E 9 13 5 7 - - 0.0
 
Date/Time
EDT
Temp
°C
App
Temp
°C
Dew
Point
Rel
Hum
%
Delta-T
°C
Wind Press
QNH
hPa
Press
MSL
hPa
Rain
since 9 am
mm
Dir
 
Spd
km/h
Gust
km/h
Spd
kts
Gust
kts
18/11:30pm 13.2 10.8 5.4 59 3.7 E 7 9 4 5 - - 0.0
18/11:00pm 14.8 12.1 5.6 54 4.4 E 9 11 5 6 - - 0.0
18/10:30pm 11.8 9.4 7.1 73 2.3 E 9 11 5 6 - - 0.0
18/10:00pm 12.0 10.1 7.5 74 2.2 E 7 9 4 5 - - 0.0
18/09:30pm 13.2 11.4 7.0 66 3.0 E 6 7 3 4 - - 0.0
18/09:00pm 13.9 12.9 7.4 65 3.2 E 2 6 1 3 - - 0.0
18/08:30pm 15.7 13.7 6.4 54 4.5 E 6 7 3 4 - - 0.0
18/08:00pm 18.1 15.3 5.0 42 6.3 ENE 9 11 5 6 - - 0.0
18/07:30pm 19.5 16.6 4.4 37 7.3 ENE 9 13 5 7 - - 0.0
18/07:00pm 21.3 18.3 4.0 32 8.4 NE 9 11 5 6 - - 0.0
18/06:30pm 22.1 18.9 3.3 29 9.1 NNE 9 13 5 7 - - 0.0
18/06:00pm 23.6 19.6 3.0 26 10.0 NNE 13 20 7 11 - - 0.0
18/05:30pm 23.6 19.7 3.5 27 9.8 NNE 13 17 7 9 - - 0.0
18/05:00pm 23.7 19.4 3.1 26 10.0 NNE 15 20 8 11 - - 0.0
18/04:30pm 24.0 19.4 3.9 27 9.9 NE 17 26 9 14 - - 0.0
18/04:00pm 23.8 19.4 2.6 25 10.2 NNE 15 26 8 14 - - 0.0
18/03:30pm 23.9 19.4 4.3 28 9.7 NNE 17 24 9 13 - - 0.0
18/03:00pm 23.4 18.9 4.4 29 9.4 N 17 24 9 13 - - 0.0
18/02:30pm 23.0 18.4 3.5 28 9.5 N 17 28 9 15 - - 0.0
18/02:00pm 23.1 19.0 4.1 29 9.4 N 15 22 8 12 - - 0.0
18/01:30pm 21.8 17.9 5.3 34 8.2 NE 15 28 8 15 - - 0.0
18/01:00pm 22.1 17.7 4.6 32 8.6 NNE 17 28 9 15 - - 0.0
18/12:30pm 21.2 17.3 5.5 36 7.8 NNE 15 22 8 12 - - 0.0
18/12:00pm 20.5 17.1 6.1 39 7.2 NNE 13 20 7 11 - - 0.0
18/11:30am 19.5 16.3 6.9 44 6.4 NE 13 20 7 11 - - 0.0
18/11:00am 18.6 15.7 8.0 50 5.5 N 13 20 7 11 - - 0.0
18/10:30am 17.4 14.1 8.0 54 4.8 NNE 15 22 8 12 - - 0.0
18/10:00am 15.9 11.6 6.9 55 4.5 NE 19 24 10 13 - - 0.0
18/09:30am 15.1 10.8 7.2 59 3.9 NE 19 26 10 14 - - 0.0
18/09:00am 13.9 9.3 6.3 60 3.7 NE 20 28 11 15 - - 0.0
18/08:30am 13.1 8.6 6.2 63 3.3 NE 19 24 10 13 - - 0.0
18/08:00am 10.6 7.9 5.8 72 2.2 ENE 9 13 5 7 - - 0.0
18/07:30am 6.1 4.5 4.6 90 0.7 ESE 2 7 1 4 - - 0.0
18/07:00am 4.0 2.4 2.4 89 0.6 CALM 0 0 0 0 - - 0.0
18/06:30am 4.0 2.4 2.5 90 0.6 CALM 0 0 0 0 - - 0.0
18/06:00am 3.6 1.2 2.0 89 0.6 ESE 4 9 2 5 - - 0.0
18/05:30am 3.5 1.8 1.7 88 0.7 CALM 0 0 0 0 - - 0.0
18/05:00am 4.4 2.8 2.6 88 0.7 CALM 0 0 0 0 - - 0.0
18/04:30am 4.3 2.7 2.5 88 0.7 CALM 0 0 0 0 - - 0.0
18/04:00am 4.5 2.1 2.4 86 0.8 ESE 4 7 2 4 - - 0.0
18/03:30am 4.6 1.8 2.1 84 1.0 SE 6 7 3 4 - - 0.0
18/03:00am 6.8 4.4 4.1 83 1.2 ESE 6 9 3 5 - - 0.0
18/02:30am 6.6 4.5 3.8 82 1.2 SE 4 7 2 4 - - 0.0
18/02:00am 7.5 4.6 4.6 82 1.3 SSE 9 13 5 7 - - 0.0
18/01:30am 7.5 4.3 5.3 86 1.0 SE 11 13 6 7 - - 0.0
18/01:00am 5.4 4.0 3.7 89 0.7 CALM 0 0 0 0 - - 0.0
18/12:30am 5.2 3.8 3.4 88 0.8 CALM 0 0 0 0 - - 0.0
18/12:00am 5.8 4.4 3.8 87 0.8 CALM 0 0 0 0 - - 0.0
 
Date/Time
EDT
Temp
°C
App
Temp
°C
Dew
Point
Rel
Hum
%
Delta-T
°C
Wind Press
QNH
hPa
Press
MSL
hPa
Rain
since 9 am
mm
Dir
 
Spd
km/h
Gust
km/h
Spd
kts
Gust
kts
17/11:30pm 6.3 4.9 3.8 84 1.1 CALM 0 0 0 0 - - 0.0
17/11:00pm 7.1 5.8 4.1 81 1.3 CALM 0 0 0 0 - - 0.0
17/10:30pm 8.4 7.4 5.7 83 1.2 CALM 0 0 0 0 - - 0.0
17/10:00pm 8.4 7.3 5.3 81 1.4 CALM 0 0 0 0 - - 0.0
17/09:30pm 8.6 7.5 5.2 79 1.5 CALM 0 0 0 0 - - 0.0
17/09:00pm 9.8 8.8 5.4 74 2.0 CALM 0 0 0 0 - - 0.0
17/08:30pm 11.0 9.7 4.2 63 3.1 CALM 0 0 0 0 - - 0.0
17/08:00pm 12.9 11.7 4.8 58 3.7 CALM 0 0 0 0 - - 0.0
17/07:30pm 16.3 15.0 4.0 44 5.8 CALM 0 0 0 0 - - 0.0

Other Formats:

Comma delimited format used in spreadsheet applications
http://www.bom.gov.au/fwo/IDV60801/IDV60801.95836.axf

JavaScript Object Notation format (JSON) in row-major order
http://www.bom.gov.au/fwo/IDV60801/IDV60801.95836.json